createdAt,value
2022-09-25T00:02:54.140Z,100300.06
2022-09-25T00:06:02.753Z,100298.47
2022-09-25T00:09:09.788Z,100293.56
2022-09-25T00:12:12.930Z,100291.44
2022-09-25T00:15:19.215Z,100302.63
2022-09-25T00:18:43.306Z,100297.59
2022-09-25T00:21:45.241Z,100292.97
2022-09-25T00:24:48.659Z,100289.66
2022-09-25T00:27:54.331Z,100289.38
2022-09-25T00:30:58.780Z,100292.81
2022-09-25T00:34:02.648Z,100282.22
2022-09-25T00:37:05.592Z,100285.63
2022-09-25T00:40:10.366Z,100284.38
2022-09-25T00:43:15.557Z,100286.94
2022-09-25T00:46:23.384Z,100279.28
2022-09-25T00:49:27.102Z,100278.41
2022-09-25T00:52:32.141Z,100282.41
2022-09-25T00:55:36.320Z,100281.06
2022-09-25T00:58:41.214Z,100275.00
2022-09-25T01:01:45.404Z,100283.72
2022-09-25T01:04:49.015Z,100272.94
2022-09-25T01:07:53.624Z,100275.50
2022-09-25T01:10:56.685Z,100269.34
2022-09-25T01:14:01.672Z,100266.50
2022-09-25T01:17:11.329Z,100274.56
2022-09-25T01:20:23.214Z,100274.34
2022-09-25T01:23:31.636Z,100267.47
2022-09-25T01:26:56.244Z,100275.19
2022-09-25T01:30:06.171Z,100267.25
2022-09-25T01:33:14.390Z,100267.25
2022-09-25T01:36:26.856Z,100266.88
2022-09-25T01:39:32.860Z,100266.13
2022-09-25T01:42:41.270Z,100266.34
2022-09-25T01:45:52.144Z,100262.81
2022-09-25T01:48:58.248Z,100269.16
2022-09-25T01:52:03.607Z,100264.03
2022-09-25T01:55:10.528Z,100263.13
2022-09-25T01:58:19.416Z,100256.59
2022-09-25T02:01:28.188Z,100267.09
2022-09-25T02:04:35.826Z,100265.19
2022-09-25T02:07:43.839Z,100260.94
2022-09-25T02:10:51.001Z,100256.97
2022-09-25T02:14:00.306Z,100254.50
2022-09-25T02:17:08.592Z,100254.72
2022-09-25T02:20:28.832Z,100266.88
2022-09-25T02:23:40.667Z,100251.00
2022-09-25T02:26:43.166Z,100258.19
2022-09-25T02:29:45.667Z,100251.13
2022-09-25T02:32:49.468Z,100244.19
2022-09-25T02:35:51.941Z,100252.50
2022-09-25T02:38:56.668Z,100240.97
2022-09-25T02:42:12.737Z,100241.81
2022-09-25T02:45:30.309Z,100238.25
2022-09-25T02:48:46.046Z,100236.63
2022-09-25T02:51:56.019Z,100241.94
2022-09-25T02:55:07.277Z,100252.41
2022-09-25T02:58:16.611Z,100246.47
2022-09-25T03:01:21.634Z,100247.41
2022-09-25T03:04:27.590Z,100247.41
2022-09-25T03:07:50.094Z,100239.31
2022-09-25T03:10:52.594Z,100239.31
2022-09-25T03:13:59.842Z,100236.84
2022-09-25T03:17:05.373Z,100232.78
2022-09-25T03:20:10.852Z,100233.16
2022-09-25T03:23:14.010Z,100232.59
2022-09-25T03:26:16.504Z,100234.28
2022-09-25T03:29:19.152Z,100226.06
2022-09-25T03:32:22.011Z,100226.72
2022-09-25T03:35:26.149Z,100224.34
2022-09-25T03:38:28.622Z,100222.75
2022-09-25T03:41:33.168Z,100222.97
2022-09-25T03:44:35.604Z,100223.22
2022-09-25T03:47:38.188Z,100218.00
2022-09-25T03:50:42.019Z,100223.59
2022-09-25T03:53:44.478Z,100225.47
2022-09-25T03:56:46.947Z,100223.69
2022-09-25T03:59:49.422Z,100218.31
2022-09-25T04:02:52.084Z,100213.09
2022-09-25T04:05:56.688Z,100213.66
2022-09-25T04:08:59.172Z,100212.94
2022-09-25T04:12:01.810Z,100215.47
2022-09-25T04:15:04.678Z,100214.25
2022-09-25T04:18:07.505Z,100214.06
2022-09-25T04:21:13.673Z,100215.66
2022-09-25T04:24:33.412Z,100223.13
2022-09-25T04:27:36.699Z,100216.59
2022-09-25T04:30:39.229Z,100215.75
2022-09-25T04:33:47.895Z,100217.28
2022-09-25T04:36:51.747Z,100217.28
2022-09-25T04:39:54.565Z,100221.03
2022-09-25T04:42:58.242Z,100218.22
2022-09-25T04:46:03.005Z,100217.09
2022-09-25T04:49:05.537Z,100215.66
2022-09-25T04:52:09.347Z,100208.66
2022-09-25T04:55:11.800Z,100212.81
2022-09-25T04:58:14.317Z,100215.47
2022-09-25T05:01:18.978Z,100217.06
2022-09-25T05:04:21.538Z,100207.72
2022-09-25T05:07:25.442Z,100205.63
2022-09-25T05:10:30.251Z,100209.13
2022-09-25T05:13:32.778Z,100220.28
2022-09-25T05:16:35.403Z,100223.94
2022-09-25T05:19:37.988Z,100219.59
2022-09-25T05:22:41.842Z,100215.09
2022-09-25T05:25:44.486Z,100211.22
2022-09-25T05:28:50.234Z,100220.47
2022-09-25T05:31:52.757Z,100214.72
2022-09-25T05:34:55.274Z,100215.75
2022-09-25T05:37:59.388Z,100218.56
2022-09-25T05:41:04.918Z,100215.75
2022-09-25T05:44:09.656Z,100210.00
2022-09-25T05:47:14.229Z,100212.72
2022-09-25T05:50:18.053Z,100211.31
2022-09-25T05:53:21.964Z,100209.88
2022-09-25T05:56:25.527Z,100212.53
2022-09-25T05:59:27.998Z,100206.88
2022-09-25T06:02:30.484Z,100204.44
2022-09-25T06:05:33.011Z,100207.63
2022-09-25T06:08:38.190Z,100212.34
2022-09-25T06:11:41.200Z,100210.56
2022-09-25T06:14:44.107Z,100207.06
2022-09-25T06:17:46.569Z,100201.19
2022-09-25T06:20:49.653Z,100212.34
2022-09-25T06:23:54.382Z,100204.13
2022-09-25T06:26:56.866Z,100205.94
2022-09-25T06:29:59.385Z,100208.94
2022-09-25T06:33:02.802Z,100217.72
2022-09-25T06:36:06.898Z,100215.25
2022-09-25T06:39:10.730Z,100217.38
2022-09-25T06:42:13.190Z,100213.31
2022-09-25T06:45:15.858Z,100210.81
2022-09-25T06:48:21.867Z,100218.97
2022-09-25T06:51:27.695Z,100216.88
2022-09-25T06:54:32.681Z,100219.06
2022-09-25T06:57:37.118Z,100222.47
2022-09-25T07:00:39.714Z,100222.28
2022-09-25T07:03:49.772Z,100221.16
2022-09-25T07:06:56.487Z,100220.09
2022-09-25T07:10:01.249Z,100218.41
2022-09-25T07:13:04.061Z,100216.94
2022-09-25T07:16:08.556Z,100224.88
2022-09-25T07:19:11.121Z,100223.41
2022-09-25T07:22:13.578Z,100221.06
2022-09-25T07:25:17.658Z,100220.88
2022-09-25T07:28:20.253Z,100225.94
2022-09-25T07:31:24.608Z,100224.13
2022-09-25T07:34:27.167Z,100228.97
2022-09-25T07:37:29.838Z,100227.28
2022-09-25T07:40:35.395Z,100224.91
2022-09-25T07:43:38.862Z,100221.47
2022-09-25T07:46:44.395Z,100229.00
2022-09-25T07:49:47.434Z,100228.72
2022-09-25T07:52:49.893Z,100234.06
2022-09-25T07:55:59.918Z,100222.53
2022-09-25T07:59:04.893Z,100222.53
2022-09-25T08:02:07.762Z,100225.06
2022-09-25T08:05:11.643Z,100223.00
2022-09-25T08:08:14.396Z,100213.03
2022-09-25T08:11:18.913Z,100207.66
2022-09-25T08:14:26.683Z,100203.34
2022-09-25T08:17:31.304Z,100216.28
2022-09-25T08:20:36.383Z,100217.16
2022-09-25T08:23:42.877Z,100218.97
2022-09-25T08:26:50.366Z,100220.72
2022-09-25T08:29:53.440Z,100230.25
2022-09-25T08:32:56.578Z,100217.25
2022-09-25T08:36:01.020Z,100219.75
2022-09-25T08:39:03.555Z,100214.53
2022-09-25T08:42:07.698Z,100227.75
2022-09-25T08:45:38.707Z,100223.91
2022-09-25T08:49:08.663Z,100217.50
2022-09-25T08:52:17.320Z,100210.19
2022-09-25T08:55:25.531Z,100214.84
2022-09-25T08:58:43.307Z,100212.81
2022-09-25T09:01:52.246Z,100209.63
2022-09-25T09:04:57.972Z,100209.13
2022-09-25T09:08:04.074Z,100205.88
2022-09-25T09:11:13.768Z,100200.53
2022-09-25T09:14:21.147Z,100191.88
2022-09-25T09:17:26.834Z,100191.72
2022-09-25T09:20:38.908Z,100186.81
2022-09-25T09:24:01.147Z,100183.38
2022-09-25T09:27:17.838Z,100184.38
2022-09-25T09:30:24.898Z,100187.38
2022-09-25T09:33:41.669Z,100189.19
2022-09-25T09:36:49.505Z,100189.91
2022-09-25T09:40:03.240Z,100198.47
2022-09-25T09:43:19.226Z,100190.03
2022-09-25T09:46:29.763Z,100180.31
2022-09-25T09:49:37.371Z,100191.47
2022-09-25T09:52:44.617Z,100183.16
2022-09-25T09:55:51.470Z,100179.22
2022-09-25T09:58:56.269Z,100183.31
2022-09-25T10:02:04.632Z,100189.28
2022-09-25T10:05:16.946Z,100181.31
2022-09-25T10:08:19.820Z,100183.22
2022-09-25T10:11:23.392Z,100176.41
2022-09-25T10:14:30.940Z,100172.50
2022-09-25T10:17:37.950Z,100172.44
2022-09-25T10:20:43.870Z,100179.44
2022-09-25T10:23:50.956Z,100171.19
2022-09-25T10:26:53.506Z,100169.44
2022-09-25T10:30:04.839Z,100161.72
2022-09-25T10:33:14.821Z,100168.75
2022-09-25T10:36:31.933Z,100169.84
2022-09-25T10:39:44.835Z,100173.91
2022-09-25T10:42:48.048Z,100159.25
2022-09-25T10:45:52.746Z,100157.09
2022-09-25T10:49:31.060Z,100153.03
2022-09-25T10:52:48.806Z,100161.13
2022-09-25T10:55:53.793Z,100155.84
2022-09-25T10:58:59.232Z,100144.06
2022-09-25T11:02:01.835Z,100143.56
2022-09-25T11:05:09.047Z,100143.91
2022-09-25T11:08:15.389Z,100150.50
2022-09-25T11:11:26.773Z,100141.28
2022-09-25T11:14:32.853Z,100144.34
2022-09-25T11:17:40.162Z,100142.84
2022-09-25T11:20:44.342Z,100138.72
2022-09-25T11:23:58.605Z,100134.03
2022-09-25T11:27:08.331Z,100134.34
2022-09-25T11:30:14.265Z,100130.22
2022-09-25T11:33:25.371Z,100138.75
2022-09-25T11:36:34.089Z,100128.06
2022-09-25T11:40:00.979Z,100125.00
2022-09-25T11:43:07.399Z,100128.72
2022-09-25T11:46:21.475Z,100122.38
2022-09-25T11:49:27.912Z,100125.63
2022-09-25T11:52:40.208Z,100110.97
2022-09-25T11:55:57.956Z,100110.47
2022-09-25T11:59:17.885Z,100110.00
2022-09-25T12:02:40.920Z,100105.03
2022-09-25T12:06:11.562Z,100098.44
2022-09-25T12:09:30.209Z,100090.78
2022-09-25T12:12:42.641Z,100087.97
2022-09-25T12:15:55.764Z,100088.63
2022-09-25T12:19:24.485Z,100087.22
2022-09-25T12:22:38.963Z,100088.91
2022-09-25T12:26:01.473Z,100082.63
2022-09-25T12:29:19.375Z,100079.78
2022-09-25T12:32:31.873Z,100073.56
2022-09-25T12:35:43.875Z,100081.28
2022-09-25T12:38:53.041Z,100068.38
2022-09-25T12:42:07.362Z,100067.28
2022-09-25T12:45:16.992Z,100060.69
2022-09-25T12:48:25.456Z,100050.47
2022-09-25T12:51:35.497Z,100055.44
2022-09-25T12:54:50.896Z,100047.56
2022-09-25T12:58:04.535Z,100046.25
2022-09-25T13:01:13.310Z,100045.66
2022-09-25T13:04:36.103Z,100045.22
2022-09-25T13:07:43.918Z,100050.13
2022-09-25T13:10:53.339Z,100047.44
2022-09-25T13:13:59.067Z,100046.44
2022-09-25T13:17:02.160Z,100046.75
2022-09-25T13:20:42.586Z,100051.66
2022-09-25T13:23:50.721Z,100039.75
2022-09-25T13:26:55.933Z,100032.28
2022-09-25T13:30:02.436Z,100038.19
2022-09-25T13:33:05.105Z,100031.28
2022-09-25T13:36:10.461Z,100025.84
2022-09-25T13:39:39.466Z,100026.06
2022-09-25T13:42:46.297Z,100028.53
2022-09-25T13:46:25.997Z,100017.00
2022-09-25T13:49:36.608Z,100014.06
2022-09-25T13:53:15.512Z,100006.53
2022-09-25T13:56:24.331Z,100006.75
2022-09-25T13:59:41.268Z,100012.72
2022-09-25T14:02:47.467Z,100009.81
2022-09-25T14:05:50.142Z,100000.75
2022-09-25T14:08:56.155Z,100005.34
2022-09-25T14:12:07.395Z,100006.78
2022-09-25T14:15:21.179Z,100003.53
2022-09-25T14:18:32.873Z,100001.28
2022-09-25T14:21:36.518Z,99997.78
2022-09-25T14:24:45.259Z,99986.56
2022-09-25T14:27:52.467Z,99990.16
2022-09-25T14:31:17.201Z,99985.75
2022-09-25T14:34:37.778Z,99980.72
2022-09-25T14:37:58.896Z,99982.06
2022-09-25T14:41:18.713Z,99976.72
2022-09-25T14:44:50.114Z,99972.09
2022-09-25T14:47:57.092Z,99967.84
2022-09-25T14:51:06.513Z,99970.34
2022-09-25T14:54:12.466Z,99964.78
2022-09-25T14:57:23.324Z,99957.88
2022-09-25T15:00:28.422Z,99960.31
2022-09-25T15:03:33.691Z,99963.84
2022-09-25T15:06:40.513Z,99960.63
2022-09-25T15:09:48.291Z,99951.03
2022-09-25T15:12:51.395Z,99941.16
2022-09-25T15:16:14.781Z,99936.28
2022-09-25T15:19:20.517Z,99934.78
2022-09-25T15:22:26.358Z,99943.22
2022-09-25T15:25:32.412Z,99934.69
2022-09-25T15:28:40.156Z,99936.09
2022-09-25T15:31:50.771Z,99928.50
2022-09-25T15:35:07.189Z,99928.75
2022-09-25T15:38:14.985Z,99931.72
2022-09-25T15:41:17.527Z,99932.69
2022-09-25T15:44:21.871Z,99933.66
2022-09-25T15:47:52.299Z,99937.31
2022-09-25T15:50:56.303Z,99937.69
2022-09-25T15:54:02.041Z,99934.41
2022-09-25T15:57:09.623Z,99933.69
2022-09-25T16:00:36.456Z,99936.97
2022-09-25T16:03:58.221Z,99929.66
2022-09-25T16:07:02.871Z,99927.53
2022-09-25T16:10:30.147Z,99922.56
2022-09-25T16:13:32.880Z,99919.59
2022-09-25T16:16:35.413Z,99929.81
2022-09-25T16:19:37.900Z,99920.41
2022-09-25T16:22:47.507Z,99924.19
2022-09-25T16:25:51.424Z,99920.22
2022-09-25T16:29:04.142Z,99919.66
2022-09-25T16:32:11.345Z,99918.38
2022-09-25T16:35:23.382Z,99912.16
2022-09-25T16:38:31.027Z,99899.34
2022-09-25T16:41:36.213Z,99907.81
2022-09-25T16:44:45.080Z,99911.47
2022-09-25T16:47:49.458Z,99908.03
2022-09-25T16:50:52.259Z,99905.25
2022-09-25T16:53:58.171Z,99906.06
2022-09-25T16:57:02.499Z,99905.41
2022-09-25T17:00:06.409Z,99906.94
2022-09-25T17:03:11.062Z,99903.00
2022-09-25T17:06:13.655Z,99908.69
2022-09-25T17:09:17.877Z,99908.50
2022-09-25T17:12:25.045Z,99905.56
2022-09-25T17:15:32.759Z,99907.03
2022-09-25T17:18:36.048Z,99897.25
2022-09-25T17:21:38.532Z,99897.13
2022-09-25T17:24:41.044Z,99899.88
2022-09-25T17:27:44.830Z,99891.81
2022-09-25T17:30:47.391Z,99887.91
2022-09-25T17:33:50.957Z,99884.75
2022-09-25T17:36:53.423Z,99893.66
2022-09-25T17:39:56.128Z,99893.66
2022-09-25T17:43:00.628Z,99891.66
2022-09-25T17:46:03.209Z,99887.84
2022-09-25T17:49:06.140Z,99882.78
2022-09-25T17:52:11.287Z,99894.94
2022-09-25T17:55:17.529Z,99895.59
2022-09-25T17:58:22.123Z,99892.78
2022-09-25T18:01:27.054Z,99892.50
2022-09-25T18:04:29.691Z,99889.00
2022-09-25T18:07:33.802Z,99898.84
2022-09-25T18:10:38.345Z,99894.63
2022-09-25T18:13:43.026Z,99894.94
2022-09-25T18:16:46.258Z,99896.72
2022-09-25T18:20:06.600Z,99891.72
2022-09-25T18:23:09.882Z,99889.50
2022-09-25T18:26:12.530Z,99896.50
2022-09-25T18:29:18.206Z,99897.88
2022-09-25T18:32:20.835Z,99895.63
2022-09-25T18:35:24.424Z,99900.00
2022-09-25T18:38:26.970Z,99896.78
2022-09-25T18:41:30.061Z,99892.13
2022-09-25T18:44:42.347Z,99891.25
2022-09-25T18:47:46.571Z,99895.22
2022-09-25T18:50:49.637Z,99895.03
2022-09-25T18:53:52.800Z,99895.97
2022-09-25T18:56:55.634Z,99887.06
2022-09-25T19:00:01.445Z,99886.53
2022-09-25T19:03:05.176Z,99883.72
2022-09-25T19:06:07.839Z,99878.75
2022-09-25T19:09:15.484Z,99885.53
2022-09-25T19:12:20.413Z,99878.41
2022-09-25T19:15:24.846Z,99883.84
2022-09-25T19:18:27.362Z,99879.81
2022-09-25T19:21:31.443Z,99874.09
2022-09-25T19:24:36.865Z,99873.31
2022-09-25T19:27:39.455Z,99867.81
2022-09-25T19:30:43.424Z,99873.97
2022-09-25T19:33:46.395Z,99877.84
2022-09-25T19:36:49.304Z,99873.59
2022-09-25T19:40:09.535Z,99877.31
2022-09-25T19:43:12.186Z,99876.66
2022-09-25T19:46:18.257Z,99873.19
2022-09-25T19:49:20.804Z,99873.91
2022-09-25T19:52:24.726Z,99867.53
2022-09-25T19:55:27.288Z,99862.09
2022-09-25T19:58:35.297Z,99857.34
2022-09-25T20:01:39.202Z,99860.47
2022-09-25T20:04:41.742Z,99856.09
2022-09-25T20:07:44.335Z,99854.22
2022-09-25T20:10:47.420Z,99853.25
2022-09-25T20:13:51.744Z,99854.22
2022-09-25T20:16:56.069Z,99851.56
2022-09-25T20:19:58.619Z,99853.16
2022-09-25T20:23:01.197Z,99845.22
2022-09-25T20:26:11.323Z,99844.16
2022-09-25T20:29:15.764Z,99841.53
2022-09-25T20:32:19.612Z,99844.69
2022-09-25T20:35:22.363Z,99841.28
2022-09-25T20:38:25.179Z,99833.16
2022-09-25T20:41:27.768Z,99841.66
2022-09-25T20:44:30.247Z,99841.22
2022-09-25T20:47:34.108Z,99836.16
2022-09-25T20:50:37.131Z,99832.75
2022-09-25T20:53:40.251Z,99828.50
2022-09-25T20:56:43.982Z,99827.66
2022-09-25T20:59:46.611Z,99832.09
2022-09-25T21:02:50.627Z,99827.66
2022-09-25T21:05:53.177Z,99833.78
2022-09-25T21:08:58.464Z,99820.78
2022-09-25T21:12:05.520Z,99826.25
2022-09-25T21:15:08.900Z,99821.41
2022-09-25T21:18:12.760Z,99819.72
2022-09-25T21:21:16.719Z,99816.75
2022-09-25T21:24:21.121Z,99811.34
2022-09-25T21:27:23.585Z,99806.59
2022-09-25T21:30:26.041Z,99803.59
2022-09-25T21:33:29.909Z,99801.91
2022-09-25T21:36:33.172Z,99799.28
2022-09-25T21:39:35.697Z,99794.75
2022-09-25T21:42:38.419Z,99791.13
2022-09-25T21:45:41.004Z,99801.84
2022-09-25T21:48:49.607Z,99799.28
2022-09-25T21:51:52.409Z,99805.94
2022-09-25T21:54:55.143Z,99804.59
2022-09-25T21:57:57.614Z,99798.66
2022-09-25T22:01:04.567Z,99804.91
2022-09-25T22:04:12.551Z,99801.41
2022-09-25T22:07:15.071Z,99803.63
2022-09-25T22:10:18.414Z,99806.91
2022-09-25T22:13:20.960Z,99804.47
2022-09-25T22:16:25.082Z,99803.50
2022-09-25T22:19:30.465Z,99800.53
2022-09-25T22:22:32.933Z,99794.47
2022-09-25T22:25:35.448Z,99794.28
2022-09-25T22:28:39.032Z,99794.16
2022-09-25T22:31:43.115Z,99792.88
2022-09-25T22:34:47.236Z,99789.38
2022-09-25T22:37:49.682Z,99783.84
2022-09-25T22:40:52.269Z,99783.84
2022-09-25T22:43:58.461Z,99771.44
2022-09-25T22:47:04.145Z,99776.00
2022-09-25T22:50:10.536Z,99781.19
2022-09-25T22:53:12.997Z,99776.75
2022-09-25T22:56:17.835Z,99776.66
2022-09-25T22:59:20.457Z,99762.56
2022-09-25T23:02:22.925Z,99764.25
2022-09-25T23:05:26.808Z,99760.31
2022-09-25T23:08:29.572Z,99756.81
2022-09-25T23:11:32.310Z,99753.31
2022-09-25T23:14:34.775Z,99748.75
2022-09-25T23:17:37.264Z,99752.03
2022-09-25T23:20:41.072Z,99747.31
2022-09-25T23:23:43.552Z,99742.03
2022-09-25T23:26:46.625Z,99740.47
2022-09-25T23:29:49.081Z,99745.00
2022-09-25T23:32:51.653Z,99742.28
2022-09-25T23:35:55.419Z,99750.22
2022-09-25T23:39:00.254Z,99740.34
2022-09-25T23:42:02.750Z,99740.34
2022-09-25T23:45:06.029Z,99733.25
2022-09-25T23:48:09.051Z,99734.09
2022-09-25T23:51:13.752Z,99732.84
2022-09-25T23:54:18.303Z,99734.66
2022-09-25T23:57:20.759Z,99740.59
